sensor_id;sensor_type;location;lat;lon;timestamp;pressure;altitude;pressure_sealevel;temperature;humidity
25080;BME280;13071;48.868;9.996;2022-08-19T00:00:46;96001.25;;;20.24;84.17
25080;BME280;13071;48.868;9.996;2022-08-19T00:03:14;96001.31;;;20.21;85.62
25080;BME280;13071;48.868;9.996;2022-08-19T00:05:41;96004.09;;;20.14;86.83
25080;BME280;13071;48.868;9.996;2022-08-19T00:08:08;96010.06;;;20.05;86.71
25080;BME280;13071;48.868;9.996;2022-08-19T00:10:34;96015.97;;;20.04;87.63
25080;BME280;13071;48.868;9.996;2022-08-19T00:13:02;96014.44;;;19.99;88.13
25080;BME280;13071;48.868;9.996;2022-08-19T00:15:29;96025.81;;;20.01;87.95
25080;BME280;13071;48.868;9.996;2022-08-19T00:17:56;96033.22;;;20.08;88.06
25080;BME280;13071;48.868;9.996;2022-08-19T00:20:23;96019.13;;;20.02;87.58
25080;BME280;13071;48.868;9.996;2022-08-19T00:22:51;96026.16;;;20.03;88.34
25080;BME280;13071;48.868;9.996;2022-08-19T00:25:18;96025.06;;;19.97;88.61
25080;BME280;13071;48.868;9.996;2022-08-19T00:27:44;96012.50;;;19.96;88.29
25080;BME280;13071;48.868;9.996;2022-08-19T00:30:13;96024.63;;;19.99;87.25
25080;BME280;13071;48.868;9.996;2022-08-19T00:32:40;96028.59;;;19.94;87.47
25080;BME280;13071;48.868;9.996;2022-08-19T00:35:08;96017.59;;;19.98;87.46
25080;BME280;13071;48.868;9.996;2022-08-19T00:37:35;96015.63;;;19.98;88.37
25080;BME280;13071;48.868;9.996;2022-08-19T00:40:04;96005.09;;;19.90;89.23
25080;BME280;13071;48.868;9.996;2022-08-19T00:42:31;96001.22;;;19.87;88.77
25080;BME280;13071;48.868;9.996;2022-08-19T00:44:58;96004.75;;;19.84;90.12
25080;BME280;13071;48.868;9.996;2022-08-19T00:47:27;95994.13;;;19.90;88.49
25080;BME280;13071;48.868;9.996;2022-08-19T00:49:56;95993.00;;;19.83;88.77
25080;BME280;13071;48.868;9.996;2022-08-19T00:52:25;95995.41;;;19.78;90.10
25080;BME280;13071;48.868;9.996;2022-08-19T00:54:55;95995.06;;;19.72;91.00
25080;BME280;13071;48.868;9.996;2022-08-19T00:57:25;95995.06;;;19.69;91.86
25080;BME280;13071;48.868;9.996;2022-08-19T00:59:54;96012.34;;;19.66;92.44
25080;BME280;13071;48.868;9.996;2022-08-19T01:02:23;96008.03;;;19.65;93.27
25080;BME280;13071;48.868;9.996;2022-08-19T01:04:51;96014.69;;;19.67;94.20
25080;BME280;13071;48.868;9.996;2022-08-19T01:07:18;96020.59;;;19.66;94.28
25080;BME280;13071;48.868;9.996;2022-08-19T01:09:45;96019.88;;;19.55;94.78
25080;BME280;13071;48.868;9.996;2022-08-19T01:12:11;96023.44;;;19.52;94.73
25080;BME280;13071;48.868;9.996;2022-08-19T01:14:39;96019.88;;;19.55;94.73
25080;BME280;13071;48.868;9.996;2022-08-19T01:17:07;96017.56;;;19.50;94.70
25080;BME280;13071;48.868;9.996;2022-08-19T01:19:36;96009.31;;;19.53;94.95
25080;BME280;13071;48.868;9.996;2022-08-19T01:22:11;96000.34;;;19.46;94.98
25080;BME280;13071;48.868;9.996;2022-08-19T01:24:41;96011.28;;;19.53;94.05
25080;BME280;13071;48.868;9.996;2022-08-19T01:27:08;96010.84;;;19.54;94.00
25080;BME280;13071;48.868;9.996;2022-08-19T01:29:38;96010.44;;;19.59;93.34
25080;BME280;13071;48.868;9.996;2022-08-19T01:32:06;96016.69;;;19.60;93.12
25080;BME280;13071;48.868;9.996;2022-08-19T01:34:33;96012.38;;;19.59;93.31
25080;BME280;13071;48.868;9.996;2022-08-19T01:37:05;96014.44;;;19.48;94.36
25080;BME280;13071;48.868;9.996;2022-08-19T01:39:34;96013.66;;;19.40;95.40
25080;BME280;13071;48.868;9.996;2022-08-19T01:42:02;96022.63;;;19.58;94.89
25080;BME280;13071;48.868;9.996;2022-08-19T01:44:30;96020.28;;;19.53;95.00
25080;BME280;13071;48.868;9.996;2022-08-19T01:46:57;96012.81;;;19.54;94.83
25080;BME280;13071;48.868;9.996;2022-08-19T01:49:24;96009.34;;;19.42;94.91
25080;BME280;13071;48.868;9.996;2022-08-19T01:51:52;96017.59;;;19.39;95.71
25080;BME280;13071;48.868;9.996;2022-08-19T01:54:21;96008.25;;;19.29;95.87
25080;BME280;13071;48.868;9.996;2022-08-19T01:56:49;96001.22;;;19.25;96.63
25080;BME280;13071;48.868;9.996;2022-08-19T01:59:19;95993.75;;;19.25;96.96
25080;BME280;13071;48.868;9.996;2022-08-19T02:01:47;95996.94;;;19.24;97.42
25080;BME280;13071;48.868;9.996;2022-08-19T02:04:14;96000.84;;;19.23;98.27
25080;BME280;13071;48.868;9.996;2022-08-19T02:06:41;96009.03;;;19.26;98.23
25080;BME280;13071;48.868;9.996;2022-08-19T02:09:08;96018.84;;;19.27;98.67
25080;BME280;13071;48.868;9.996;2022-08-19T02:11:36;96018.00;;;19.34;98.55
25080;BME280;13071;48.868;9.996;2022-08-19T02:14:06;96014.94;;;19.21;99.10
25080;BME280;13071;48.868;9.996;2022-08-19T02:16:35;96020.84;;;19.23;98.78
25080;BME280;13071;48.868;9.996;2022-08-19T02:19:02;96028.28;;;19.19;99.30
25080;BME280;13071;48.868;9.996;2022-08-19T02:21:29;96018.88;;;19.20;99.71
25080;BME280;13071;48.868;9.996;2022-08-19T02:23:56;96031.09;;;19.09;100.00
25080;BME280;13071;48.868;9.996;2022-08-19T02:26:24;96041.66;;;19.07;100.00
25080;BME280;13071;48.868;9.996;2022-08-19T02:28:52;96047.50;;;19.16;100.00
25080;BME280;13071;48.868;9.996;2022-08-19T02:31:22;96041.22;;;19.22;98.74
25080;BME280;13071;48.868;9.996;2022-08-19T02:33:50;96049.84;;;19.17;98.75
25080;BME280;13071;48.868;9.996;2022-08-19T02:36:18;96037.31;;;19.16;99.08
25080;BME280;13071;48.868;9.996;2022-08-19T02:38:45;96036.13;;;19.21;98.13
25080;BME280;13071;48.868;9.996;2022-08-19T02:41:13;96027.13;;;19.17;97.92
25080;BME280;13071;48.868;9.996;2022-08-19T02:43:41;96024.34;;;19.20;98.29
25080;BME280;13071;48.868;9.996;2022-08-19T02:46:15;96027.53;;;19.15;98.41
25080;BME280;13071;48.868;9.996;2022-08-19T02:48:43;96029.88;;;19.10;98.42
25080;BME280;13071;48.868;9.996;2022-08-19T02:51:17;96037.00;;;19.04;98.48
25080;BME280;13071;48.868;9.996;2022-08-19T02:53:44;96039.31;;;19.05;98.94
25080;BME280;13071;48.868;9.996;2022-08-19T02:56:11;96040.91;;;19.03;98.96
25080;BME280;13071;48.868;9.996;2022-08-19T02:58:37;96043.25;;;19.08;98.80
25080;BME280;13071;48.868;9.996;2022-08-19T03:01:04;96042.47;;;19.07;99.10
25080;BME280;13071;48.868;9.996;2022-08-19T03:03:31;96037.75;;;19.08;99.45
25080;BME280;13071;48.868;9.996;2022-08-19T03:06:07;96040.09;;;19.09;99.29
25080;BME280;13071;48.868;9.996;2022-08-19T03:08:36;96034.59;;;19.13;98.99
25080;BME280;13071;48.868;9.996;2022-08-19T03:11:03;96034.56;;;19.16;98.41
25080;BME280;13071;48.868;9.996;2022-08-19T03:13:30;96031.03;;;19.16;98.58
25080;BME280;13071;48.868;9.996;2022-08-19T03:15:57;96035.75;;;19.15;99.22
25080;BME280;13071;48.868;9.996;2022-08-19T03:18:24;96033.78;;;19.16;99.44
25080;BME280;13071;48.868;9.996;2022-08-19T03:20:52;96027.91;;;19.17;99.55
25080;BME280;13071;48.868;9.996;2022-08-19T03:23:20;96025.19;;;19.14;100.00
25080;BME280;13071;48.868;9.996;2022-08-19T03:25:51;96013.03;;;19.11;100.00
25080;BME280;13071;48.868;9.996;2022-08-19T03:28:19;96010.69;;;19.10;100.00
25080;BME280;13071;48.868;9.996;2022-08-19T03:30:57;96009.53;;;19.11;100.00
25080;BME280;13071;48.868;9.996;2022-08-19T03:33:26;96011.91;;;19.02;100.00
25080;BME280;13071;48.868;9.996;2022-08-19T03:36:07;96010.00;;;18.91;100.00
25080;BME280;13071;48.868;9.996;2022-08-19T03:38:35;96015.88;;;18.97;99.75
25080;BME280;13071;48.868;9.996;2022-08-19T03:41:05;96013.53;;;18.92;100.00
25080;BME280;13071;48.868;9.996;2022-08-19T03:43:34;96022.91;;;18.94;100.00
25080;BME280;13071;48.868;9.996;2022-08-19T03:46:02;96022.94;;;18.91;100.00
25080;BME280;13071;48.868;9.996;2022-08-19T03:48:30;96020.16;;;18.94;99.88
25080;BME280;13071;48.868;9.996;2022-08-19T03:50:57;96020.97;;;18.98;100.00
25080;BME280;13071;48.868;9.996;2022-08-19T03:53:25;96022.91;;;18.94;100.00
25080;BME280;13071;48.868;9.996;2022-08-19T03:55:52;96021.78;;;18.88;100.00
25080;BME280;13071;48.868;9.996;2022-08-19T03:58:21;96036.25;;;18.85;100.00
25080;BME280;13071;48.868;9.996;2022-08-19T04:00:47;96031.97;;;18.81;100.00
25080;BME280;13071;48.868;9.996;2022-08-19T04:03:14;96041.38;;;18.87;100.00
25080;BME280;13071;48.868;9.996;2022-08-19T04:05:41;96033.94;;;18.84;100.00
25080;BME280;13071;48.868;9.996;2022-08-19T04:08:07;96031.56;;;18.86;100.00
25080;BME280;13071;48.868;9.996;2022-08-19T04:10:35;96037.84;;;18.83;100.00
25080;BME280;13071;48.868;9.996;2022-08-19T04:13:02;96033.16;;;18.80;100.00
25080;BME280;13071;48.868;9.996;2022-08-19T04:15:31;96028.47;;;18.77;100.00
25080;BME280;13071;48.868;9.996;2022-08-19T04:18:04;96023.38;;;18.79;100.00
25080;BME280;13071;48.868;9.996;2022-08-19T04:20:33;96026.13;;;18.75;100.00
25080;BME280;13071;48.868;9.996;2022-08-19T04:22:59;96030.03;;;18.78;100.00
25080;BME280;13071;48.868;9.996;2022-08-19T04:25:26;96015.94;;;18.79;100.00
25080;BME280;13071;48.868;9.996;2022-08-19T04:27:53;96022.22;;;18.76;100.00
25080;BME280;13071;48.868;9.996;2022-08-19T04:30:19;96019.09;;;18.74;100.00
25080;BME280;13071;48.868;9.996;2022-08-19T04:32:49;96026.91;;;18.76;100.00
25080;BME280;13071;48.868;9.996;2022-08-19T04:35:16;96020.22;;;18.80;100.00
25080;BME280;13071;48.868;9.996;2022-08-19T04:37:42;96018.25;;;18.88;100.00
25080;BME280;13071;48.868;9.996;2022-08-19T04:40:09;96015.56;;;18.77;100.00
25080;BME280;13071;48.868;9.996;2022-08-19T04:43:05;96021.41;;;18.76;100.00
25080;BME280;13071;48.868;9.996;2022-08-19T04:45:31;96025.34;;;18.78;100.00
25080;BME280;13071;48.868;9.996;2022-08-19T04:47:59;96022.56;;;18.85;100.00
25080;BME280;13071;48.868;9.996;2022-08-19T04:50:27;96022.56;;;18.85;100.00
25080;BME280;13071;48.868;9.996;2022-08-19T04:52:54;96024.94;;;18.80;100.00
25080;BME280;13071;48.868;9.996;2022-08-19T04:55:21;96036.69;;;18.80;100.00
25080;BME280;13071;48.868;9.996;2022-08-19T04:57:48;96033.94;;;18.84;100.00
25080;BME280;13071;48.868;9.996;2022-08-19T05:00:16;96038.63;;;18.87;100.00
25080;BME280;13071;48.868;9.996;2022-08-19T05:02:42;96045.66;;;18.91;100.00
25080;BME280;13071;48.868;9.996;2022-08-19T05:05:11;96049.19;;;18.88;100.00
25080;BME280;13071;48.868;9.996;2022-08-19T05:07:37;96055.06;;;18.90;100.00
25080;BME280;13071;48.868;9.996;2022-08-19T05:10:06;96067.59;;;18.88;100.00
25080;BME280;13071;48.868;9.996;2022-08-19T05:12:33;96065.25;;;18.93;100.00
25080;BME280;13071;48.868;9.996;2022-08-19T05:15:02;96073.47;;;18.90;100.00
25080;BME280;13071;48.868;9.996;2022-08-19T05:17:28;96069.53;;;18.91;100.00
25080;BME280;13071;48.868;9.996;2022-08-19T05:19:55;96076.97;;;18.90;100.00
25080;BME280;13071;48.868;9.996;2022-08-19T05:22:42;96090.31;;;18.88;100.00
25080;BME280;13071;48.868;9.996;2022-08-19T05:25:11;96091.50;;;18.87;100.00
25080;BME280;13071;48.868;9.996;2022-08-19T05:27:39;96097.34;;;18.93;100.00
25080;BME280;13071;48.868;9.996;2022-08-19T05:30:07;96101.25;;;18.95;100.00
25080;BME280;13071;48.868;9.996;2022-08-19T05:32:34;96096.53;;;18.99;100.00
25080;BME280;13071;48.868;9.996;2022-08-19T05:35:01;96102.03;;;19.03;100.00
25080;BME280;13071;48.868;9.996;2022-08-19T05:37:27;96097.69;;;19.09;100.00
25080;BME280;13071;48.868;9.996;2022-08-19T05:39:55;96102.00;;;19.14;100.00
25080;BME280;13071;48.868;9.996;2022-08-19T05:42:22;96106.28;;;19.15;100.00
25080;BME280;13071;48.868;9.996;2022-08-19T05:44:50;96106.28;;;19.15;100.00
25080;BME280;13071;48.868;9.996;2022-08-19T05:47:17;96111.78;;;19.18;99.93
25080;BME280;13071;48.868;9.996;2022-08-19T05:49:45;96113.28;;;19.33;98.98
25080;BME280;13071;48.868;9.996;2022-08-19T05:52:14;96120.34;;;19.27;97.85
25080;BME280;13071;48.868;9.996;2022-08-19T05:54:42;96118.75;;;19.30;97.50
25080;BME280;13071;48.868;9.996;2022-08-19T05:57:11;96119.56;;;19.27;97.02
25080;BME280;13071;48.868;9.996;2022-08-19T05:59:38;96120.38;;;19.20;95.59
25080;BME280;13071;48.868;9.996;2022-08-19T06:02:06;96120.41;;;19.13;95.13
25080;BME280;13071;48.868;9.996;2022-08-19T06:04:33;96117.63;;;19.20;95.89
25080;BME280;13071;48.868;9.996;2022-08-19T06:06:59;96119.59;;;19.23;96.32
25080;BME280;13071;48.868;9.996;2022-08-19T06:09:27;96127.00;;;19.26;96.22
25080;BME280;13071;48.868;9.996;2022-08-19T06:11:55;96115.25;;;19.33;95.45
25080;BME280;13071;48.868;9.996;2022-08-19T06:14:27;96116.81;;;19.30;94.97
25080;BME280;13071;48.868;9.996;2022-08-19T06:16:54;96118.75;;;19.33;94.32
25080;BME280;13071;48.868;9.996;2022-08-19T06:19:22;96113.66;;;19.32;93.72
25080;BME280;13071;48.868;9.996;2022-08-19T06:21:51;96111.34;;;19.27;94.77
25080;BME280;13071;48.868;9.996;2022-08-19T06:24:19;96117.59;;;19.31;93.75
25080;BME280;13071;48.868;9.996;2022-08-19T06:26:50;96104.25;;;19.36;93.29
25080;BME280;13071;48.868;9.996;2022-08-19T06:29:19;96115.66;;;19.28;93.38
25080;BME280;13071;48.868;9.996;2022-08-19T06:31:49;96107.00;;;19.29;93.60
25080;BME280;13071;48.868;9.996;2022-08-19T06:34:17;96104.25;;;19.29;94.04
25080;BME280;13071;48.868;9.996;2022-08-19T06:36:46;96108.56;;;19.30;93.38
25080;BME280;13071;48.868;9.996;2022-08-19T06:39:15;96107.78;;;19.30;92.48
25080;BME280;13071;48.868;9.996;2022-08-19T06:41:45;96100.38;;;19.20;93.27
25080;BME280;13071;48.868;9.996;2022-08-19T06:44:12;96106.19;;;19.36;93.56
25080;BME280;13071;48.868;9.996;2022-08-19T06:46:40;96114.47;;;19.29;94.14
25080;BME280;13071;48.868;9.996;2022-08-19T06:49:08;96113.28;;;19.30;94.03
25080;BME280;13071;48.868;9.996;2022-08-19T06:51:39;96125.06;;;19.27;94.47
25080;BME280;13071;48.868;9.996;2022-08-19T06:54:06;96124.25;;;19.33;92.76
25080;BME280;13071;48.868;9.996;2022-08-19T06:56:33;96119.50;;;19.41;93.29
25080;BME280;13071;48.868;9.996;2022-08-19T06:59:01;96122.69;;;19.32;94.38
25080;BME280;13071;48.868;9.996;2022-08-19T07:01:28;96124.63;;;19.32;95.79
25080;BME280;13071;48.868;9.996;2022-08-19T07:03:54;96127.38;;;19.32;94.88
25080;BME280;13071;48.868;9.996;2022-08-19T07:06:23;96127.38;;;19.32;94.72
25080;BME280;13071;48.868;9.996;2022-08-19T07:08:50;96126.19;;;19.36;94.71
25080;BME280;13071;48.868;9.996;2022-08-19T07:11:18;96124.25;;;19.33;93.88
25080;BME280;13071;48.868;9.996;2022-08-19T07:13:46;96119.13;;;19.35;93.78
25080;BME280;13071;48.868;9.996;2022-08-19T07:16:17;96123.84;;;19.31;93.35
25080;BME280;13071;48.868;9.996;2022-08-19T07:18:44;96123.13;;;19.24;94.53
25080;BME280;13071;48.868;9.996;2022-08-19T07:21:12;96128.19;;;19.29;94.78
25080;BME280;13071;48.868;9.996;2022-08-19T07:23:41;96115.28;;;19.22;95.10
25080;BME280;13071;48.868;9.996;2022-08-19T07:26:11;96131.72;;;19.26;95.29
25080;BME280;13071;48.868;9.996;2022-08-19T07:28:38;96129.38;;;19.28;95.52
25080;BME280;13071;48.868;9.996;2022-08-19T07:31:06;96123.09;;;19.20;95.84
25080;BME280;13071;48.868;9.996;2022-08-19T07:33:33;96123.84;;;19.31;94.54
25080;BME280;13071;48.868;9.996;2022-08-19T07:36:03;96126.19;;;19.36;94.41
25080;BME280;13071;48.868;9.996;2022-08-19T07:38:29;96132.81;;;19.39;94.24
25080;BME280;13071;48.868;9.996;2022-08-19T07:40:58;96140.28;;;19.35;94.05
25080;BME280;13071;48.868;9.996;2022-08-19T07:43:25;96146.16;;;19.40;93.50
25080;BME280;13071;48.868;9.996;2022-08-19T07:45:52;96148.53;;;19.38;93.21
25080;BME280;13071;48.868;9.996;2022-08-19T07:48:21;96147.75;;;19.38;93.36
25080;BME280;13071;48.868;9.996;2022-08-19T07:50:50;96158.31;;;19.39;93.18
25080;BME280;13071;48.868;9.996;2022-08-19T07:53:17;96143.41;;;19.40;92.50
25080;BME280;13071;48.868;9.996;2022-08-19T07:55:44;96146.16;;;19.44;93.00
25080;BME280;13071;48.868;9.996;2022-08-19T07:58:15;96143.78;;;19.50;91.46
25080;BME280;13071;48.868;9.996;2022-08-19T08:00:42;96142.97;;;19.56;90.78
25080;BME280;13071;48.868;9.996;2022-08-19T08:03:10;96149.69;;;19.45;91.98
25080;BME280;13071;48.868;9.996;2022-08-19T08:05:37;96155.53;;;19.54;92.00
25080;BME280;13071;48.868;9.996;2022-08-19T08:08:21;96158.38;;;19.22;92.84
25080;BME280;13071;48.868;9.996;2022-08-19T08:11:02;96161.47;;;19.34;92.63
25080;BME280;13071;48.868;9.996;2022-08-19T08:13:30;96155.59;;;19.32;92.03
25080;BME280;13071;48.868;9.996;2022-08-19T08:15:59;96152.03;;;19.42;92.16
25080;BME280;13071;48.868;9.996;2022-08-19T08:18:26;96155.47;;;19.64;92.35
25080;BME280;13071;48.868;9.996;2022-08-19T08:20:53;96139.72;;;19.82;91.21
25080;BME280;13071;48.868;9.996;2022-08-19T08:23:20;96157.41;;;19.78;90.63
25080;BME280;13071;48.868;9.996;2022-08-19T08:25:50;96149.56;;;19.76;91.09
25080;BME280;13071;48.868;9.996;2022-08-19T08:28:17;96150.34;;;19.70;91.89
25080;BME280;13071;48.868;9.996;2022-08-19T08:30:47;96153.63;;;19.47;91.45
25080;BME280;13071;48.868;9.996;2022-08-19T08:33:14;96150.69;;;19.79;89.84
25080;BME280;13071;48.868;9.996;2022-08-19T08:35:43;96152.28;;;19.80;90.04
25080;BME280;13071;48.868;9.996;2022-08-19T08:38:11;96157.53;;;19.35;90.93
25080;BME280;13071;48.868;9.996;2022-08-19T08:40:43;96157.22;;;19.23;92.89
25080;BME280;13071;48.868;9.996;2022-08-19T08:43:19;96147.75;;;19.31;93.54
25080;BME280;13071;48.868;9.996;2022-08-19T08:45:55;96144.56;;;19.57;92.95
25080;BME280;13071;48.868;9.996;2022-08-19T08:48:36;96146.56;;;19.46;92.80
25080;BME280;13071;48.868;9.996;2022-08-19T08:51:07;96152.81;;;19.43;91.77
25080;BME280;13071;48.868;9.996;2022-08-19T08:53:36;96150.34;;;19.70;90.82
25080;BME280;13071;48.868;9.996;2022-08-19T08:56:06;96145.72;;;19.56;90.43
25080;BME280;13071;48.868;9.996;2022-08-19T08:58:47;96151.19;;;19.67;90.47
25080;BME280;13071;48.868;9.996;2022-08-19T09:01:16;96154.69;;;19.67;89.45
25080;BME280;13071;48.868;9.996;2022-08-19T09:03:44;96150.72;;;19.75;90.45
25080;BME280;13071;48.868;9.996;2022-08-19T09:06:14;96156.44;;;20.06;88.66
25080;BME280;13071;48.868;9.996;2022-08-19T09:09:00;96157.00;;;19.76;89.39
25080;BME280;13071;48.868;9.996;2022-08-19T09:11:39;96170.06;;;19.44;91.14
25080;BME280;13071;48.868;9.996;2022-08-19T09:14:13;96164.50;;;19.68;91.10
25080;BME280;13071;48.868;9.996;2022-08-19T09:16:42;96162.41;;;19.90;89.71
25080;BME280;13071;48.868;9.996;2022-08-19T09:19:09;96160.81;;;19.96;88.48
25080;BME280;13071;48.868;9.996;2022-08-19T09:21:36;96158.53;;;19.80;89.69
25080;BME280;13071;48.868;9.996;2022-08-19T09:24:04;96166.50;;;19.54;90.26
25080;BME280;13071;48.868;9.996;2022-08-19T09:26:32;96163.34;;;19.59;90.97
25080;BME280;13071;48.868;9.996;2022-08-19T09:29:00;96164.44;;;19.75;90.43
25080;BME280;13071;48.868;9.996;2022-08-19T09:31:29;96165.03;;;19.28;91.22
25080;BME280;13071;48.868;9.996;2022-08-19T09:33:57;96170.44;;;19.49;91.97
25080;BME280;13071;48.868;9.996;2022-08-19T09:36:25;96163.81;;;19.36;93.06
25080;BME280;13071;48.868;9.996;2022-08-19T09:38:55;96163.41;;;19.41;91.46
25080;BME280;13071;48.868;9.996;2022-08-19T09:41:23;96169.28;;;19.39;91.90
25080;BME280;13071;48.868;9.996;2022-08-19T09:43:52;96168.16;;;19.26;92.78
25080;BME280;13071;48.868;9.996;2022-08-19T09:46:21;96166.16;;;19.45;92.52
25080;BME280;13071;48.868;9.996;2022-08-19T09:48:50;96163.38;;;19.55;91.52
25080;BME280;13071;48.868;9.996;2022-08-19T09:51:20;96163.84;;;19.32;92.40
25080;BME280;13071;48.868;9.996;2022-08-19T09:53:48;96157.25;;;19.09;93.91
25080;BME280;13071;48.868;9.996;2022-08-19T09:56:17;96152.09;;;19.28;93.53
25080;BME280;13071;48.868;9.996;2022-08-19T09:58:45;96143.44;;;19.48;93.09
25080;BME280;13071;48.868;9.996;2022-08-19T10:01:16;96160.25;;;19.53;92.13
25080;BME280;13071;48.868;9.996;2022-08-19T10:03:47;96163.81;;;19.47;90.92
25080;BME280;13071;48.868;9.996;2022-08-19T10:06:14;96163.00;;;19.50;91.18
25080;BME280;13071;48.868;9.996;2022-08-19T10:08:41;96163.06;;;19.32;92.15
25080;BME280;13071;48.868;9.996;2022-08-19T10:11:08;96167.81;;;19.17;92.34
25080;BME280;13071;48.868;9.996;2022-08-19T10:13:35;96165.00;;;19.31;92.70
25080;BME280;13071;48.868;9.996;2022-08-19T10:16:05;96167.38;;;19.26;92.81
25080;BME280;13071;48.868;9.996;2022-08-19T10:18:32;96176.38;;;19.26;92.64
25080;BME280;13071;48.868;9.996;2022-08-19T10:21:05;96166.94;;;19.34;92.27
25080;BME280;13071;48.868;9.996;2022-08-19T10:23:34;96167.34;;;19.29;92.62
25080;BME280;13071;48.868;9.996;2022-08-19T10:26:03;96172.84;;;19.29;92.31
25080;BME280;13071;48.868;9.996;2022-08-19T10:28:32;96171.66;;;19.37;92.29
25080;BME280;13071;48.868;9.996;2022-08-19T10:31:02;96177.97;;;19.20;92.24
25080;BME280;13071;48.868;9.996;2022-08-19T10:33:29;96176.00;;;19.21;92.55
25080;BME280;13071;48.868;9.996;2022-08-19T10:35:59;96177.22;;;19.13;92.97
25080;BME280;13071;48.868;9.996;2022-08-19T10:38:25;96178.75;;;19.21;93.08
25080;BME280;13071;48.868;9.996;2022-08-19T10:40:54;96176.03;;;19.10;92.57
25080;BME280;13071;48.868;9.996;2022-08-19T10:43:22;96180.72;;;19.17;92.96
25080;BME280;13071;48.868;9.996;2022-08-19T10:45:52;96188.56;;;19.22;92.98
25080;BME280;13071;48.868;9.996;2022-08-19T10:48:19;96187.00;;;19.17;93.39
25080;BME280;13071;48.868;9.996;2022-08-19T10:50:45;96190.88;;;19.30;92.73
25080;BME280;13071;48.868;9.996;2022-08-19T10:53:29;96194.41;;;19.49;91.88
25080;BME280;13071;48.868;9.996;2022-08-19T10:55:56;96189.31;;;19.29;92.62
25080;BME280;13071;48.868;9.996;2022-08-19T10:58:41;96214.06;;;19.12;93.83
25080;BME280;13071;48.868;9.996;2022-08-19T11:01:09;96202.69;;;19.13;93.72
25080;BME280;13071;48.868;9.996;2022-08-19T11:03:36;96200.78;;;18.89;97.06
25080;BME280;13071;48.868;9.996;2022-08-19T11:06:05;96214.50;;;18.78;100.00
25080;BME280;13071;48.868;9.996;2022-08-19T11:08:32;96196.09;;;18.58;100.00
25080;BME280;13071;48.868;9.996;2022-08-19T11:11:01;96201.53;;;18.50;100.00
25080;BME280;13071;48.868;9.996;2022-08-19T11:13:28;96197.59;;;18.41;100.00
25080;BME280;13071;48.868;9.996;2022-08-19T11:16:02;96196.81;;;18.40;100.00
25080;BME280;13071;48.868;9.996;2022-08-19T11:18:29;96201.50;;;18.22;100.00
25080;BME280;13071;48.868;9.996;2022-08-19T11:21:05;96210.16;;;18.52;100.00
25080;BME280;13071;48.868;9.996;2022-08-19T11:23:32;96209.75;;;18.36;100.00
25080;BME280;13071;48.868;9.996;2022-08-19T11:25:58;96200.78;;;18.50;100.00
25080;BME280;13071;48.868;9.996;2022-08-19T11:28:26;96210.19;;;18.63;100.00
25080;BME280;13071;48.868;9.996;2022-08-19T11:30:53;96202.75;;;18.67;100.00
25080;BME280;13071;48.868;9.996;2022-08-19T11:33:21;96197.25;;;18.67;100.00
25080;BME280;13071;48.868;9.996;2022-08-19T11:35:48;96204.31;;;18.65;100.00
25080;BME280;13071;48.868;9.996;2022-08-19T11:38:15;96202.72;;;18.53;100.00
25080;BME280;13071;48.868;9.996;2022-08-19T11:40:42;96193.72;;;18.67;100.00
25080;BME280;13071;48.868;9.996;2022-08-19T11:43:09;96201.16;;;18.66;100.00
25080;BME280;13071;48.868;9.996;2022-08-19T11:45:36;96207.78;;;18.37;100.00
25080;BME280;13071;48.868;9.996;2022-08-19T11:48:02;96200.34;;;18.51;100.00
25080;BME280;13071;48.868;9.996;2022-08-19T11:50:30;96204.69;;;18.49;100.00
25080;BME280;13071;48.868;9.996;2022-08-19T11:52:57;96198.81;;;18.58;100.00
25080;BME280;13071;48.868;9.996;2022-08-19T11:55:23;96200.78;;;18.64;100.00
25080;BME280;13071;48.868;9.996;2022-08-19T11:57:50;96203.91;;;18.63;100.00
25080;BME280;13071;48.868;9.996;2022-08-19T12:00:18;96195.31;;;18.78;100.00
25080;BME280;13071;48.868;9.996;2022-08-19T12:02:45;96202.34;;;18.69;100.00
25080;BME280;13071;48.868;9.996;2022-08-19T12:05:12;96197.63;;;18.66;100.00
25080;BME280;13071;48.868;9.996;2022-08-19T12:07:40;96206.25;;;18.71;100.00
25080;BME280;13071;48.868;9.996;2022-08-19T12:10:08;96200.00;;;18.67;100.00
25080;BME280;13071;48.868;9.996;2022-08-19T12:12:34;96207.06;;;18.68;100.00
25080;BME280;13071;48.868;9.996;2022-08-19T12:15:03;96207.06;;;18.68;100.00
25080;BME280;13071;48.868;9.996;2022-08-19T12:17:30;96211.75;;;18.78;100.00
25080;BME280;13071;48.868;9.996;2022-08-19T12:19:57;96207.81;;;18.83;100.00
25080;BME280;13071;48.868;9.996;2022-08-19T12:22:23;96207.03;;;18.82;100.00
25080;BME280;13071;48.868;9.996;2022-08-19T12:24:52;96214.06;;;18.80;100.00
25080;BME280;13071;48.868;9.996;2022-08-19T12:27:19;96207.03;;;18.82;100.00
25080;BME280;13071;48.868;9.996;2022-08-19T12:29:45;96210.16;;;18.81;100.00
25080;BME280;13071;48.868;9.996;2022-08-19T12:32:12;96204.28;;;18.86;100.00
25080;BME280;13071;48.868;9.996;2022-08-19T12:34:39;96199.59;;;18.76;100.00
25080;BME280;13071;48.868;9.996;2022-08-19T12:37:07;96204.31;;;18.72;100.00
25080;BME280;13071;48.868;9.996;2022-08-19T12:39:35;96206.66;;;18.73;100.00
25080;BME280;13071;48.868;9.996;2022-08-19T12:42:04;96208.63;;;18.69;100.00
25080;BME280;13071;48.868;9.996;2022-08-19T12:44:31;96210.19;;;18.67;100.00
25080;BME280;13071;48.868;9.996;2022-08-19T12:46:57;96211.75;;;18.61;100.00
25080;BME280;13071;48.868;9.996;2022-08-19T12:49:24;96213.31;;;18.69;100.00
25080;BME280;13071;48.868;9.996;2022-08-19T12:51:53;96212.53;;;18.58;100.00
25080;BME280;13071;48.868;9.996;2022-08-19T12:54:19;96218.34;;;18.42;100.00
25080;BME280;13071;48.868;9.996;2022-08-19T12:56:46;96208.59;;;18.55;100.00
25080;BME280;13071;48.868;9.996;2022-08-19T12:59:14;96215.69;;;18.60;100.00
25080;BME280;13071;48.868;9.996;2022-08-19T13:01:43;96221.94;;;18.74;100.00
25080;BME280;13071;48.868;9.996;2022-08-19T13:04:10;96227.41;;;18.60;100.00